sensor_id;sensor_type;location;lat;lon;timestamp;P1;durP1;ratioP1;P2;durP2;ratioP2
19525;SDS011;9907;42.676;26.348;2024-03-02T00:02:14;72.63;;;41.80;;
19525;SDS011;9907;42.676;26.348;2024-03-02T00:04:39;66.97;;;41.00;;
19525;SDS011;9907;42.676;26.348;2024-03-02T00:07:06;71.33;;;41.40;;
19525;SDS011;9907;42.676;26.348;2024-03-02T00:09:32;66.00;;;39.63;;
19525;SDS011;9907;42.676;26.348;2024-03-02T00:11:58;65.13;;;38.27;;
19525;SDS011;9907;42.676;26.348;2024-03-02T00:14:25;71.50;;;40.33;;
19525;SDS011;9907;42.676;26.348;2024-03-02T00:16:51;74.30;;;41.43;;
19525;SDS011;9907;42.676;26.348;2024-03-02T00:19:18;71.40;;;41.90;;
19525;SDS011;9907;42.676;26.348;2024-03-02T00:21:45;76.80;;;44.07;;
19525;SDS011;9907;42.676;26.348;2024-03-02T00:24:21;88.93;;;48.70;;
19525;SDS011;9907;42.676;26.348;2024-03-02T00:26:56;87.80;;;49.13;;
19525;SDS011;9907;42.676;26.348;2024-03-02T00:29:22;79.50;;;47.57;;
19525;SDS011;9907;42.676;26.348;2024-03-02T00:31:47;88.17;;;48.10;;
19525;SDS011;9907;42.676;26.348;2024-03-02T00:34:13;77.10;;;47.20;;
19525;SDS011;9907;42.676;26.348;2024-03-02T00:36:41;80.97;;;46.77;;
19525;SDS011;9907;42.676;26.348;2024-03-02T00:39:07;80.13;;;46.33;;
19525;SDS011;9907;42.676;26.348;2024-03-02T00:41:33;81.70;;;47.13;;
19525;SDS011;9907;42.676;26.348;2024-03-02T00:46:29;72.00;;;44.00;;
19525;SDS011;9907;42.676;26.348;2024-03-02T00:48:58;74.80;;;44.20;;
19525;SDS011;9907;42.676;26.348;2024-03-02T00:51:29;69.70;;;42.23;;
19525;SDS011;9907;42.676;26.348;2024-03-02T00:54:01;66.00;;;40.43;;
19525;SDS011;9907;42.676;26.348;2024-03-02T00:56:30;68.77;;;41.20;;
19525;SDS011;9907;42.676;26.348;2024-03-02T00:58:56;63.23;;;41.07;;
19525;SDS011;9907;42.676;26.348;2024-03-02T01:01:22;62.30;;;39.63;;
19525;SDS011;9907;42.676;26.348;2024-03-02T01:03:47;57.23;;;36.67;;
19525;SDS011;9907;42.676;26.348;2024-03-02T01:06:14;60.57;;;37.10;;
19525;SDS011;9907;42.676;26.348;2024-03-02T01:08:40;64.43;;;37.80;;
19525;SDS011;9907;42.676;26.348;2024-03-02T01:11:05;60.60;;;38.43;;
19525;SDS011;9907;42.676;26.348;2024-03-02T01:13:32;52.30;;;35.77;;
19525;SDS011;9907;42.676;26.348;2024-03-02T01:15:58;63.00;;;37.33;;
19525;SDS011;9907;42.676;26.348;2024-03-02T01:18:24;59.43;;;35.83;;
19525;SDS011;9907;42.676;26.348;2024-03-02T01:20:52;57.80;;;37.77;;
19525;SDS011;9907;42.676;26.348;2024-03-02T01:23:22;58.43;;;37.63;;
19525;SDS011;9907;42.676;26.348;2024-03-02T01:25:47;58.60;;;37.33;;
19525;SDS011;9907;42.676;26.348;2024-03-02T01:28:15;60.47;;;37.90;;
19525;SDS011;9907;42.676;26.348;2024-03-02T01:30:40;60.47;;;36.60;;
19525;SDS011;9907;42.676;26.348;2024-03-02T01:33:07;67.60;;;38.70;;
19525;SDS011;9907;42.676;26.348;2024-03-02T01:35:33;70.57;;;39.43;;
19525;SDS011;9907;42.676;26.348;2024-03-02T01:38:00;67.67;;;39.27;;
19525;SDS011;9907;42.676;26.348;2024-03-02T01:40:25;59.10;;;37.40;;
19525;SDS011;9907;42.676;26.348;2024-03-02T01:42:52;54.77;;;35.57;;
19525;SDS011;9907;42.676;26.348;2024-03-02T01:45:24;59.57;;;34.60;;
19525;SDS011;9907;42.676;26.348;2024-03-02T01:47:50;53.73;;;32.43;;
19525;SDS011;9907;42.676;26.348;2024-03-02T01:50:24;57.17;;;34.07;;
19525;SDS011;9907;42.676;26.348;2024-03-02T01:52:50;54.93;;;33.73;;
19525;SDS011;9907;42.676;26.348;2024-03-02T01:55:16;57.53;;;34.73;;
19525;SDS011;9907;42.676;26.348;2024-03-02T01:57:41;54.53;;;34.23;;
19525;SDS011;9907;42.676;26.348;2024-03-02T02:00:08;57.93;;;33.03;;
19525;SDS011;9907;42.676;26.348;2024-03-02T02:02:34;54.00;;;35.13;;
19525;SDS011;9907;42.676;26.348;2024-03-02T02:05:00;52.90;;;34.57;;
19525;SDS011;9907;42.676;26.348;2024-03-02T02:07:25;57.33;;;36.00;;
19525;SDS011;9907;42.676;26.348;2024-03-02T02:09:51;59.07;;;36.27;;
19525;SDS011;9907;42.676;26.348;2024-03-02T02:12:17;63.73;;;37.27;;
19525;SDS011;9907;42.676;26.348;2024-03-02T02:14:49;59.23;;;37.00;;
19525;SDS011;9907;42.676;26.348;2024-03-02T02:17:15;43.80;;;29.70;;
19525;SDS011;9907;42.676;26.348;2024-03-02T02:19:41;44.67;;;30.33;;
19525;SDS011;9907;42.676;26.348;2024-03-02T02:22:07;46.37;;;28.67;;
19525;SDS011;9907;42.676;26.348;2024-03-02T02:24:33;46.30;;;28.33;;
19525;SDS011;9907;42.676;26.348;2024-03-02T02:26:59;39.83;;;28.07;;
19525;SDS011;9907;42.676;26.348;2024-03-02T02:29:24;39.67;;;27.73;;
19525;SDS011;9907;42.676;26.348;2024-03-02T02:31:50;44.87;;;28.80;;
19525;SDS011;9907;42.676;26.348;2024-03-02T02:34:15;42.10;;;28.03;;
19525;SDS011;9907;42.676;26.348;2024-03-02T02:36:41;45.67;;;30.03;;
19525;SDS011;9907;42.676;26.348;2024-03-02T02:39:09;41.43;;;27.30;;
19525;SDS011;9907;42.676;26.348;2024-03-02T02:41:38;46.00;;;27.00;;
19525;SDS011;9907;42.676;26.348;2024-03-02T02:44:04;46.13;;;27.23;;
19525;SDS011;9907;42.676;26.348;2024-03-02T02:46:30;43.80;;;27.60;;
19525;SDS011;9907;42.676;26.348;2024-03-02T02:48:55;43.83;;;28.97;;
19525;SDS011;9907;42.676;26.348;2024-03-02T02:51:21;46.63;;;28.70;;
19525;SDS011;9907;42.676;26.348;2024-03-02T02:53:46;43.13;;;27.03;;
19525;SDS011;9907;42.676;26.348;2024-03-02T02:56:12;43.33;;;28.50;;
19525;SDS011;9907;42.676;26.348;2024-03-02T02:58:39;42.10;;;27.43;;
19525;SDS011;9907;42.676;26.348;2024-03-02T03:01:06;37.67;;;26.00;;
19525;SDS011;9907;42.676;26.348;2024-03-02T03:03:31;43.63;;;26.33;;
19525;SDS011;9907;42.676;26.348;2024-03-02T03:05:56;37.83;;;25.17;;
19525;SDS011;9907;42.676;26.348;2024-03-02T03:08:22;35.53;;;24.53;;
19525;SDS011;9907;42.676;26.348;2024-03-02T03:10:49;35.37;;;25.50;;
19525;SDS011;9907;42.676;26.348;2024-03-02T03:13:15;33.60;;;23.77;;
19525;SDS011;9907;42.676;26.348;2024-03-02T03:15:40;36.50;;;24.77;;
19525;SDS011;9907;42.676;26.348;2024-03-02T03:18:07;41.03;;;24.67;;
19525;SDS011;9907;42.676;26.348;2024-03-02T03:20:33;30.53;;;23.77;;
19525;SDS011;9907;42.676;26.348;2024-03-02T03:22:59;30.90;;;23.13;;
19525;SDS011;9907;42.676;26.348;2024-03-02T03:25:25;34.77;;;24.10;;
19525;SDS011;9907;42.676;26.348;2024-03-02T03:27:50;31.67;;;22.67;;
19525;SDS011;9907;42.676;26.348;2024-03-02T03:30:19;34.13;;;23.57;;
19525;SDS011;9907;42.676;26.348;2024-03-02T03:32:45;32.90;;;22.80;;
19525;SDS011;9907;42.676;26.348;2024-03-02T03:35:10;35.27;;;24.63;;
19525;SDS011;9907;42.676;26.348;2024-03-02T03:37:38;35.40;;;23.60;;
19525;SDS011;9907;42.676;26.348;2024-03-02T03:40:03;38.87;;;25.90;;
19525;SDS011;9907;42.676;26.348;2024-03-02T03:42:35;37.73;;;26.30;;
19525;SDS011;9907;42.676;26.348;2024-03-02T03:45:01;36.53;;;28.27;;
19525;SDS011;9907;42.676;26.348;2024-03-02T03:47:27;42.90;;;28.77;;
19525;SDS011;9907;42.676;26.348;2024-03-02T03:49:53;40.40;;;28.57;;
19525;SDS011;9907;42.676;26.348;2024-03-02T03:52:18;35.83;;;26.63;;
19525;SDS011;9907;42.676;26.348;2024-03-02T03:54:58;39.57;;;27.27;;
19525;SDS011;9907;42.676;26.348;2024-03-02T03:57:25;40.57;;;28.43;;
19525;SDS011;9907;42.676;26.348;2024-03-02T03:59:53;41.23;;;27.40;;
19525;SDS011;9907;42.676;26.348;2024-03-02T04:02:18;38.10;;;26.30;;
19525;SDS011;9907;42.676;26.348;2024-03-02T04:04:44;40.67;;;27.03;;
19525;SDS011;9907;42.676;26.348;2024-03-02T04:07:09;50.60;;;29.03;;
19525;SDS011;9907;42.676;26.348;2024-03-02T04:09:36;40.77;;;28.87;;
19525;SDS011;9907;42.676;26.348;2024-03-02T04:12:01;40.43;;;26.60;;
19525;SDS011;9907;42.676;26.348;2024-03-02T04:14:30;38.20;;;26.10;;
19525;SDS011;9907;42.676;26.348;2024-03-02T04:16:55;33.40;;;24.97;;
19525;SDS011;9907;42.676;26.348;2024-03-02T04:19:24;38.57;;;25.10;;
19525;SDS011;9907;42.676;26.348;2024-03-02T04:21:49;41.00;;;27.23;;
19525;SDS011;9907;42.676;26.348;2024-03-02T04:24:15;32.10;;;23.93;;
19525;SDS011;9907;42.676;26.348;2024-03-02T04:26:40;33.40;;;23.30;;
19525;SDS011;9907;42.676;26.348;2024-03-02T04:29:07;36.67;;;23.70;;
19525;SDS011;9907;42.676;26.348;2024-03-02T04:31:33;34.77;;;23.23;;
19525;SDS011;9907;42.676;26.348;2024-03-02T04:33:58;37.90;;;26.57;;
19525;SDS011;9907;42.676;26.348;2024-03-02T04:36:24;38.80;;;26.83;;
19525;SDS011;9907;42.676;26.348;2024-03-02T04:38:49;42.60;;;28.70;;
19525;SDS011;9907;42.676;26.348;2024-03-02T04:41:15;41.33;;;27.97;;
19525;SDS011;9907;42.676;26.348;2024-03-02T04:43:42;44.60;;;28.90;;
19525;SDS011;9907;42.676;26.348;2024-03-02T04:46:07;45.57;;;29.60;;
19525;SDS011;9907;42.676;26.348;2024-03-02T04:48:33;49.33;;;29.60;;
19525;SDS011;9907;42.676;26.348;2024-03-02T04:50:59;43.37;;;30.43;;
19525;SDS011;9907;42.676;26.348;2024-03-02T04:53:24;44.73;;;30.23;;
19525;SDS011;9907;42.676;26.348;2024-03-02T04:55:50;41.57;;;28.40;;
19525;SDS011;9907;42.676;26.348;2024-03-02T04:58:34;44.67;;;28.73;;
19525;SDS011;9907;42.676;26.348;2024-03-02T05:01:00;45.13;;;29.10;;
19525;SDS011;9907;42.676;26.348;2024-03-02T05:03:25;47.00;;;29.23;;
19525;SDS011;9907;42.676;26.348;2024-03-02T05:05:52;50.90;;;29.23;;
19525;SDS011;9907;42.676;26.348;2024-03-02T05:08:17;50.77;;;32.33;;
19525;SDS011;9907;42.676;26.348;2024-03-02T05:10:44;50.47;;;31.47;;
19525;SDS011;9907;42.676;26.348;2024-03-02T05:13:49;48.33;;;30.10;;
19525;SDS011;9907;42.676;26.348;2024-03-02T05:16:18;49.97;;;30.73;;
19525;SDS011;9907;42.676;26.348;2024-03-02T05:18:43;46.43;;;29.57;;
19525;SDS011;9907;42.676;26.348;2024-03-02T05:21:09;55.03;;;31.90;;
19525;SDS011;9907;42.676;26.348;2024-03-02T05:23:34;55.27;;;31.90;;
19525;SDS011;9907;42.676;26.348;2024-03-02T05:26:00;49.73;;;32.20;;
19525;SDS011;9907;42.676;26.348;2024-03-02T05:28:26;55.13;;;32.87;;
19525;SDS011;9907;42.676;26.348;2024-03-02T05:30:52;53.87;;;33.17;;
19525;SDS011;9907;42.676;26.348;2024-03-02T05:33:21;56.47;;;32.17;;
19525;SDS011;9907;42.676;26.348;2024-03-02T05:35:47;53.63;;;31.93;;
19525;SDS011;9907;42.676;26.348;2024-03-02T05:38:15;51.17;;;32.23;;
19525;SDS011;9907;42.676;26.348;2024-03-02T05:40:40;55.83;;;32.87;;
19525;SDS011;9907;42.676;26.348;2024-03-02T05:43:07;54.60;;;31.70;;
19525;SDS011;9907;42.676;26.348;2024-03-02T05:45:33;30.60;;;19.83;;
19525;SDS011;9907;42.676;26.348;2024-03-02T05:47:58;50.93;;;31.30;;
19525;SDS011;9907;42.676;26.348;2024-03-02T05:50:38;45.47;;;29.43;;
19525;SDS011;9907;42.676;26.348;2024-03-02T05:53:04;41.00;;;28.70;;
19525;SDS011;9907;42.676;26.348;2024-03-02T05:55:30;42.53;;;30.40;;
19525;SDS011;9907;42.676;26.348;2024-03-02T05:57:56;46.57;;;31.80;;
19525;SDS011;9907;42.676;26.348;2024-03-02T06:00:30;45.20;;;31.30;;
19525;SDS011;9907;42.676;26.348;2024-03-02T06:02:56;42.90;;;29.80;;
19525;SDS011;9907;42.676;26.348;2024-03-02T06:05:23;45.23;;;31.30;;
19525;SDS011;9907;42.676;26.348;2024-03-02T06:07:49;46.80;;;31.87;;
19525;SDS011;9907;42.676;26.348;2024-03-02T06:10:16;43.23;;;31.37;;
19525;SDS011;9907;42.676;26.348;2024-03-02T06:15:16;48.63;;;34.43;;
19525;SDS011;9907;42.676;26.348;2024-03-02T06:17:42;50.00;;;33.30;;
19525;SDS011;9907;42.676;26.348;2024-03-02T06:20:09;43.87;;;31.00;;
19525;SDS011;9907;42.676;26.348;2024-03-02T06:22:47;101.13;;;80.03;;
19525;SDS011;9907;42.676;26.348;2024-03-02T06:25:12;175.47;;;129.03;;
19525;SDS011;9907;42.676;26.348;2024-03-02T06:27:38;205.13;;;159.07;;
19525;SDS011;9907;42.676;26.348;2024-03-02T06:30:04;81.27;;;58.67;;
19525;SDS011;9907;42.676;26.348;2024-03-02T06:32:29;52.97;;;33.77;;
19525;SDS011;9907;42.676;26.348;2024-03-02T06:34:57;40.47;;;29.07;;
19525;SDS011;9907;42.676;26.348;2024-03-02T06:37:29;43.80;;;29.23;;
19525;SDS011;9907;42.676;26.348;2024-03-02T06:39:55;40.60;;;28.37;;
19525;SDS011;9907;42.676;26.348;2024-03-02T06:42:23;40.47;;;27.93;;
19525;SDS011;9907;42.676;26.348;2024-03-02T06:44:51;42.10;;;27.30;;
19525;SDS011;9907;42.676;26.348;2024-03-02T06:47:17;38.93;;;27.43;;
19525;SDS011;9907;42.676;26.348;2024-03-02T06:49:42;37.57;;;25.00;;
19525;SDS011;9907;42.676;26.348;2024-03-02T06:52:10;39.57;;;25.97;;
19525;SDS011;9907;42.676;26.348;2024-03-02T06:54:36;44.13;;;25.13;;
19525;SDS011;9907;42.676;26.348;2024-03-02T06:57:06;35.30;;;24.80;;
19525;SDS011;9907;42.676;26.348;2024-03-02T06:59:32;33.77;;;23.90;;
19525;SDS011;9907;42.676;26.348;2024-03-02T07:02:10;41.73;;;26.87;;
19525;SDS011;9907;42.676;26.348;2024-03-02T07:04:46;39.73;;;28.43;;
19525;SDS011;9907;42.676;26.348;2024-03-02T07:07:11;49.00;;;31.07;;
19525;SDS011;9907;42.676;26.348;2024-03-02T07:09:40;45.13;;;31.37;;
19525;SDS011;9907;42.676;26.348;2024-03-02T07:12:06;64.50;;;33.47;;
19525;SDS011;9907;42.676;26.348;2024-03-02T07:14:34;280.20;;;70.07;;
19525;SDS011;9907;42.676;26.348;2024-03-02T07:17:19;41.40;;;25.07;;
19525;SDS011;9907;42.676;26.348;2024-03-02T07:19:44;39.07;;;24.20;;
19525;SDS011;9907;42.676;26.348;2024-03-02T07:22:10;36.87;;;22.13;;
19525;SDS011;9907;42.676;26.348;2024-03-02T07:24:42;37.13;;;18.57;;
19525;SDS011;9907;42.676;26.348;2024-03-02T07:27:11;34.83;;;17.97;;
19525;SDS011;9907;42.676;26.348;2024-03-02T07:29:37;44.53;;;18.23;;
19525;SDS011;9907;42.676;26.348;2024-03-02T07:32:03;35.00;;;16.73;;
19525;SDS011;9907;42.676;26.348;2024-03-02T07:34:31;21.60;;;15.33;;
19525;SDS011;9907;42.676;26.348;2024-03-02T07:36:56;27.67;;;15.07;;
19525;SDS011;9907;42.676;26.348;2024-03-02T07:39:22;23.00;;;16.50;;
19525;SDS011;9907;42.676;26.348;2024-03-02T07:41:49;23.27;;;17.67;;
19525;SDS011;9907;42.676;26.348;2024-03-02T07:44:14;41.43;;;18.17;;
19525;SDS011;9907;42.676;26.348;2024-03-02T07:46:43;22.90;;;15.30;;
19525;SDS011;9907;42.676;26.348;2024-03-02T07:49:09;25.20;;;16.53;;
19525;SDS011;9907;42.676;26.348;2024-03-02T07:51:35;31.17;;;18.10;;
19525;SDS011;9907;42.676;26.348;2024-03-02T07:54:01;25.30;;;17.70;;
19525;SDS011;9907;42.676;26.348;2024-03-02T07:56:27;27.10;;;17.30;;
19525;SDS011;9907;42.676;26.348;2024-03-02T07:58:53;26.70;;;17.33;;
19525;SDS011;9907;42.676;26.348;2024-03-02T08:01:19;29.20;;;18.93;;
19525;SDS011;9907;42.676;26.348;2024-03-02T08:03:44;31.30;;;22.67;;
19525;SDS011;9907;42.676;26.348;2024-03-02T08:06:13;34.10;;;25.13;;
19525;SDS011;9907;42.676;26.348;2024-03-02T08:08:40;32.53;;;22.93;;
19525;SDS011;9907;42.676;26.348;2024-03-02T08:11:06;35.07;;;22.53;;
19525;SDS011;9907;42.676;26.348;2024-03-02T08:13:31;30.80;;;21.50;;
19525;SDS011;9907;42.676;26.348;2024-03-02T08:15:57;31.77;;;20.20;;
19525;SDS011;9907;42.676;26.348;2024-03-02T08:18:22;36.87;;;20.63;;
19525;SDS011;9907;42.676;26.348;2024-03-02T08:20:48;29.47;;;17.97;;
19525;SDS011;9907;42.676;26.348;2024-03-02T08:23:15;30.77;;;18.87;;
19525;SDS011;9907;42.676;26.348;2024-03-02T08:25:40;31.50;;;21.50;;
19525;SDS011;9907;42.676;26.348;2024-03-02T08:28:10;26.80;;;20.00;;
19525;SDS011;9907;42.676;26.348;2024-03-02T08:30:39;28.30;;;20.50;;
19525;SDS011;9907;42.676;26.348;2024-03-02T08:33:04;25.87;;;17.27;;
19525;SDS011;9907;42.676;26.348;2024-03-02T08:35:31;24.67;;;16.40;;
19525;SDS011;9907;42.676;26.348;2024-03-02T08:38:01;22.40;;;15.33;;
19525;SDS011;9907;42.676;26.348;2024-03-02T08:40:28;27.03;;;16.17;;
19525;SDS011;9907;42.676;26.348;2024-03-02T08:42:54;25.00;;;16.93;;
19525;SDS011;9907;42.676;26.348;2024-03-02T08:45:21;29.70;;;17.57;;
19525;SDS011;9907;42.676;26.348;2024-03-02T08:47:46;20.13;;;15.13;;
19525;SDS011;9907;42.676;26.348;2024-03-02T08:50:13;22.90;;;15.40;;
19525;SDS011;9907;42.676;26.348;2024-03-02T08:52:52;20.93;;;14.23;;
19525;SDS011;9907;42.676;26.348;2024-03-02T08:55:21;19.80;;;14.37;;
19525;SDS011;9907;42.676;26.348;2024-03-02T08:57:46;20.80;;;14.30;;
19525;SDS011;9907;42.676;26.348;2024-03-02T09:00:29;19.13;;;13.57;;
19525;SDS011;9907;42.676;26.348;2024-03-02T09:03:07;19.70;;;14.63;;
19525;SDS011;9907;42.676;26.348;2024-03-02T09:05:42;17.90;;;12.03;;
19525;SDS011;9907;42.676;26.348;2024-03-02T09:08:29;20.27;;;13.43;;
19525;SDS011;9907;42.676;26.348;2024-03-02T09:10:57;19.13;;;12.13;;
19525;SDS011;9907;42.676;26.348;2024-03-02T09:13:22;15.67;;;12.20;;
19525;SDS011;9907;42.676;26.348;2024-03-02T09:15:48;20.57;;;13.60;;
19525;SDS011;9907;42.676;26.348;2024-03-02T09:18:14;21.53;;;12.90;;
19525;SDS011;9907;42.676;26.348;2024-03-02T09:20:42;16.53;;;13.30;;
19525;SDS011;9907;42.676;26.348;2024-03-02T09:23:09;20.03;;;13.43;;
19525;SDS011;9907;42.676;26.348;2024-03-02T09:25:35;20.17;;;13.33;;
19525;SDS011;9907;42.676;26.348;2024-03-02T09:28:02;21.27;;;14.40;;
19525;SDS011;9907;42.676;26.348;2024-03-02T09:30:30;19.40;;;15.23;;
19525;SDS011;9907;42.676;26.348;2024-03-02T09:32:56;20.20;;;15.40;;
19525;SDS011;9907;42.676;26.348;2024-03-02T09:35:24;20.00;;;15.33;;
19525;SDS011;9907;42.676;26.348;2024-03-02T09:37:49;21.57;;;15.53;;
19525;SDS011;9907;42.676;26.348;2024-03-02T09:40:16;19.13;;;15.27;;
19525;SDS011;9907;42.676;26.348;2024-03-02T09:42:42;20.17;;;14.17;;
19525;SDS011;9907;42.676;26.348;2024-03-02T09:45:08;21.20;;;15.83;;
19525;SDS011;9907;42.676;26.348;2024-03-02T09:47:34;21.47;;;17.43;;
19525;SDS011;9907;42.676;26.348;2024-03-02T09:50:00;22.33;;;17.93;;
19525;SDS011;9907;42.676;26.348;2024-03-02T09:52:31;25.07;;;20.27;;
19525;SDS011;9907;42.676;26.348;2024-03-02T09:54:58;23.27;;;18.33;;
19525;SDS011;9907;42.676;26.348;2024-03-02T09:57:23;21.80;;;19.37;;
19525;SDS011;9907;42.676;26.348;2024-03-02T09:59:49;24.27;;;19.50;;
19525;SDS011;9907;42.676;26.348;2024-03-02T10:02:16;24.77;;;18.90;;
19525;SDS011;9907;42.676;26.348;2024-03-02T10:07:27;25.10;;;19.50;;
19525;SDS011;9907;42.676;26.348;2024-03-02T10:09:52;22.77;;;17.90;;
19525;SDS011;9907;42.676;26.348;2024-03-02T10:12:22;22.77;;;19.17;;
19525;SDS011;9907;42.676;26.348;2024-03-02T10:14:48;22.37;;;18.90;;
19525;SDS011;9907;42.676;26.348;2024-03-02T10:17:16;40.97;;;27.73;;
19525;SDS011;9907;42.676;26.348;2024-03-02T10:19:43;29.60;;;22.77;;
19525;SDS011;9907;42.676;26.348;2024-03-02T10:22:08;30.57;;;21.73;;
19525;SDS011;9907;42.676;26.348;2024-03-02T10:24:37;24.33;;;19.63;;
19525;SDS011;9907;42.676;26.348;2024-03-02T10:27:11;31.03;;;22.23;;
19525;SDS011;9907;42.676;26.348;2024-03-02T10:29:41;34.67;;;22.63;;
19525;SDS011;9907;42.676;26.348;2024-03-02T10:32:08;24.70;;;17.83;;
19525;SDS011;9907;42.676;26.348;2024-03-02T10:34:42;21.30;;;16.37;;
19525;SDS011;9907;42.676;26.348;2024-03-02T10:37:10;21.73;;;15.93;;
19525;SDS011;9907;42.676;26.348;2024-03-02T10:39:38;24.80;;;18.07;;
19525;SDS011;9907;42.676;26.348;2024-03-02T10:42:06;26.70;;;18.10;;
19525;SDS011;9907;42.676;26.348;2024-03-02T10:44:32;20.77;;;16.57;;
19525;SDS011;9907;42.676;26.348;2024-03-02T10:47:01;29.90;;;19.13;;
19525;SDS011;9907;42.676;26.348;2024-03-02T10:49:31;27.10;;;18.80;;
19525;SDS011;9907;42.676;26.348;2024-03-02T10:51:58;26.43;;;19.43;;
19525;SDS011;9907;42.676;26.348;2024-03-02T10:54:24;23.10;;;19.77;;
19525;SDS011;9907;42.676;26.348;2024-03-02T10:57:01;27.87;;;19.90;;
19525;SDS011;9907;42.676;26.348;2024-03-02T10:59:35;25.83;;;20.33;;
19525;SDS011;9907;42.676;26.348;2024-03-02T11:02:05;27.43;;;21.40;;
19525;SDS011;9907;42.676;26.348;2024-03-02T11:04:45;24.83;;;21.53;;
19525;SDS011;9907;42.676;26.348;2024-03-02T11:07:24;30.53;;;22.10;;
19525;SDS011;9907;42.676;26.348;2024-03-02T11:09:54;28.73;;;23.97;;
19525;SDS011;9907;42.676;26.348;2024-03-02T11:12:29;27.03;;;19.60;;
19525;SDS011;9907;42.676;26.348;2024-03-02T11:14:57;25.90;;;19.30;;
19525;SDS011;9907;42.676;26.348;2024-03-02T11:19:56;23.67;;;20.77;;
19525;SDS011;9907;42.676;26.348;2024-03-02T11:22:22;27.00;;;20.93;;
19525;SDS011;9907;42.676;26.348;2024-03-02T11:24:51;29.87;;;22.07;;
19525;SDS011;9907;42.676;26.348;2024-03-02T11:30:48;78.20;;;39.77;;
19525;SDS011;9907;42.676;26.348;2024-03-02T11:33:12;32.70;;;23.07;;
19525;SDS011;9907;42.676;26.348;2024-03-02T11:35:38;29.03;;;22.00;;
19525;SDS011;9907;42.676;26.348;2024-03-02T11:38:13;28.90;;;23.70;;
19525;SDS011;9907;42.676;26.348;2024-03-02T11:40:42;29.07;;;25.57;;
19525;SDS011;9907;42.676;26.348;2024-03-02T11:43:08;29.27;;;25.53;;
19525;SDS011;9907;42.676;26.348;2024-03-02T11:51:11;29.67;;;24.10;;
19525;SDS011;9907;42.676;26.348;2024-03-02T11:53:41;30.47;;;21.70;;
19525;SDS011;9907;42.676;26.348;2024-03-02T11:56:08;24.30;;;21.73;;
19525;SDS011;9907;42.676;26.348;2024-03-02T11:58:38;26.00;;;21.97;;
19525;SDS011;9907;42.676;26.348;2024-03-02T12:01:27;26.23;;;22.77;;
19525;SDS011;9907;42.676;26.348;2024-03-02T12:03:54;28.70;;;21.80;;
19525;SDS011;9907;42.676;26.348;2024-03-02T12:06:22;29.33;;;24.83;;
19525;SDS011;9907;42.676;26.348;2024-03-02T12:08:52;31.87;;;25.13;;
19525;SDS011;9907;42.676;26.348;2024-03-02T12:11:21;29.60;;;24.73;;
19525;SDS011;9907;42.676;26.348;2024-03-02T12:13:52;29.83;;;23.50;;
19525;SDS011;9907;42.676;26.348;2024-03-02T12:16:23;29.67;;;23.20;;
19525;SDS011;9907;42.676;26.348;2024-03-02T12:18:51;28.97;;;23.47;;
19525;SDS011;9907;42.676;26.348;2024-03-02T12:21:19;26.83;;;22.30;;
19525;SDS011;9907;42.676;26.348;2024-03-02T12:23:45;24.30;;;21.27;;
19525;SDS011;9907;42.676;26.348;2024-03-02T12:26:11;27.77;;;21.77;;
19525;SDS011;9907;42.676;26.348;2024-03-02T12:28:37;25.57;;;20.30;;
19525;SDS011;9907;42.676;26.348;2024-03-02T12:31:02;27.80;;;18.73;;
19525;SDS011;9907;42.676;26.348;2024-03-02T12:33:28;19.90;;;14.93;;
19525;SDS011;9907;42.676;26.348;2024-03-02T12:35:56;21.73;;;16.33;;
19525;SDS011;9907;42.676;26.348;2024-03-02T12:38:22;20.40;;;15.73;;
19525;SDS011;9907;42.676;26.348;2024-03-02T12:40:51;23.27;;;15.43;;
19525;SDS011;9907;42.676;26.348;2024-03-02T12:43:17;19.73;;;14.73;;
19525;SDS011;9907;42.676;26.348;2024-03-02T12:45:43;46.93;;;19.13;;
19525;SDS011;9907;42.676;26.348;2024-03-02T12:48:08;29.70;;;16.83;;
19525;SDS011;9907;42.676;26.348;2024-03-02T12:50:34;21.13;;;14.87;;
19525;SDS011;9907;42.676;26.348;2024-03-02T12:52:59;20.03;;;13.63;;
19525;SDS011;9907;42.676;26.348;2024-03-02T12:55:25;20.57;;;12.97;;
19525;SDS011;9907;42.676;26.348;2024-03-02T12:57:51;18.93;;;13.70;;
19525;SDS011;9907;42.676;26.348;2024-03-02T13:00:18;23.50;;;15.13;;
19525;SDS011;9907;42.676;26.348;2024-03-02T13:02:46;21.07;;;14.93;;
19525;SDS011;9907;42.676;26.348;2024-03-02T13:05:22;28.13;;;22.23;;
19525;SDS011;9907;42.676;26.348;2024-03-02T13:07:48;19.90;;;14.90;;
19525;SDS011;9907;42.676;26.348;2024-03-02T13:10:13;23.90;;;15.97;;
19525;SDS011;9907;42.676;26.348;2024-03-02T13:12:39;20.87;;;13.73;;
19525;SDS011;9907;42.676;26.348;2024-03-02T13:15:04;17.83;;;13.77;;
19525;SDS011;9907;42.676;26.348;2024-03-02T13:17:30;22.47;;;13.77;;
19525;SDS011;9907;42.676;26.348;2024-03-02T13:22:29;21.17;;;16.13;;
19525;SDS011;9907;42.676;26.348;2024-03-02T13:24:55;19.73;;;14.87;;
19525;SDS011;9907;42.676;26.348;2024-03-02T13:27:20;19.67;;;14.00;;
19525;SDS011;9907;42.676;26.348;2024-03-02T13:29:49;20.53;;;15.33;;
19525;SDS011;9907;42.676;26.348;2024-03-02T13:32:15;21.50;;;14.63;;
19525;SDS011;9907;42.676;26.348;2024-03-02T13:34:41;22.20;;;13.63;;
19525;SDS011;9907;42.676;26.348;2024-03-02T13:37:10;16.53;;;13.20;;
19525;SDS011;9907;42.676;26.348;2024-03-02T13:39:38;18.53;;;13.20;;
19525;SDS011;9907;42.676;26.348;2024-03-02T13:42:08;16.47;;;13.20;;
19525;SDS011;9907;42.676;26.348;2024-03-02T13:44:35;20.00;;;14.80;;
19525;SDS011;9907;42.676;26.348;2024-03-02T13:47:02;17.97;;;14.40;;
19525;SDS011;9907;42.676;26.348;2024-03-02T13:49:28;16.07;;;13.90;;
19525;SDS011;9907;42.676;26.348;2024-03-02T13:52:01;17.40;;;13.50;;
19525;SDS011;9907;42.676;26.348;2024-03-02T13:54:36;20.33;;;15.43;;
19525;SDS011;9907;42.676;26.348;2024-03-02T13:57:04;18.33;;;14.67;;
19525;SDS011;9907;42.676;26.348;2024-03-02T13:59:30;19.33;;;14.43;;
19525;SDS011;9907;42.676;26.348;2024-03-02T14:01:56;18.90;;;13.83;;
19525;SDS011;9907;42.676;26.348;2024-03-02T14:04:21;22.80;;;14.17;;
19525;SDS011;9907;42.676;26.348;2024-03-02T14:06:49;18.77;;;14.10;;
19525;SDS011;9907;42.676;26.348;2024-03-02T14:09:15;23.07;;;16.30;;
19525;SDS011;9907;42.676;26.348;2024-03-02T14:11:43;19.47;;;12.93;;
19525;SDS011;9907;42.676;26.348;2024-03-02T14:14:12;17.07;;;13.33;;
19525;SDS011;9907;42.676;26.348;2024-03-02T14:16:37;21.00;;;14.17;;
19525;SDS011;9907;42.676;26.348;2024-03-02T14:19:07;18.23;;;13.67;;
19525;SDS011;9907;42.676;26.348;2024-03-02T14:21:55;21.23;;;13.57;;
19525;SDS011;9907;42.676;26.348;2024-03-02T14:24:21;24.10;;;14.20;;
19525;SDS011;9907;42.676;26.348;2024-03-02T14:26:50;42.97;;;23.33;;
19525;SDS011;9907;42.676;26.348;2024-03-02T14:29:16;23.63;;;18.03;;
19525;SDS011;9907;42.676;26.348;2024-03-02T14:31:42;36.63;;;17.57;;
19525;SDS011;9907;42.676;26.348;2024-03-02T14:34:27;28.07;;;19.47;;
19525;SDS011;9907;42.676;26.348;2024-03-02T14:36:55;31.37;;;22.67;;
19525;SDS011;9907;42.676;26.348;2024-03-02T14:39:22;22.90;;;18.50;;
19525;SDS011;9907;42.676;26.348;2024-03-02T14:41:47;20.30;;;15.87;;
19525;SDS011;9907;42.676;26.348;2024-03-02T14:44:13;23.87;;;14.70;;
19525;SDS011;9907;42.676;26.348;2024-03-02T14:46:40;19.60;;;14.63;;